sensor_id;sensor_type;location;lat;lon;timestamp;P1;durP1;ratioP1;P2;durP2;ratioP2
13805;SDS011;6974;53.606;9.872;2024-03-02T00:00:48;17.93;;;15.03;;
13805;SDS011;6974;53.606;9.872;2024-03-02T00:03:16;23.33;;;16.87;;
13805;SDS011;6974;53.606;9.872;2024-03-02T00:05:43;23.23;;;15.87;;
13805;SDS011;6974;53.606;9.872;2024-03-02T00:08:14;21.87;;;16.23;;
13805;SDS011;6974;53.606;9.872;2024-03-02T00:10:50;21.07;;;16.27;;
13805;SDS011;6974;53.606;9.872;2024-03-02T00:13:20;18.93;;;15.37;;
13805;SDS011;6974;53.606;9.872;2024-03-02T00:15:50;20.70;;;16.03;;
13805;SDS011;6974;53.606;9.872;2024-03-02T00:18:19;22.87;;;16.17;;
13805;SDS011;6974;53.606;9.872;2024-03-02T00:20:47;21.23;;;15.53;;
13805;SDS011;6974;53.606;9.872;2024-03-02T00:23:14;19.30;;;16.53;;
13805;SDS011;6974;53.606;9.872;2024-03-02T00:25:44;21.47;;;16.10;;
13805;SDS011;6974;53.606;9.872;2024-03-02T00:28:16;21.00;;;16.73;;
13805;SDS011;6974;53.606;9.872;2024-03-02T00:30:52;22.10;;;17.40;;
13805;SDS011;6974;53.606;9.872;2024-03-02T00:33:22;20.90;;;16.40;;
13805;SDS011;6974;53.606;9.872;2024-03-02T00:35:50;19.73;;;17.40;;
13805;SDS011;6974;53.606;9.872;2024-03-02T00:38:17;21.57;;;17.03;;
13805;SDS011;6974;53.606;9.872;2024-03-02T00:40:44;21.57;;;16.80;;
13805;SDS011;6974;53.606;9.872;2024-03-02T00:43:18;22.40;;;16.43;;
13805;SDS011;6974;53.606;9.872;2024-03-02T00:46:06;20.03;;;15.00;;
13805;SDS011;6974;53.606;9.872;2024-03-02T00:48:33;21.40;;;16.43;;
13805;SDS011;6974;53.606;9.872;2024-03-02T00:51:01;21.73;;;16.97;;
13805;SDS011;6974;53.606;9.872;2024-03-02T00:53:29;20.73;;;15.60;;
13805;SDS011;6974;53.606;9.872;2024-03-02T00:55:57;20.53;;;16.33;;
13805;SDS011;6974;53.606;9.872;2024-03-02T00:58:26;20.00;;;15.60;;
13805;SDS011;6974;53.606;9.872;2024-03-02T01:00:52;20.80;;;16.57;;
13805;SDS011;6974;53.606;9.872;2024-03-02T01:03:20;22.47;;;16.77;;
13805;SDS011;6974;53.606;9.872;2024-03-02T01:05:47;21.50;;;17.20;;
13805;SDS011;6974;53.606;9.872;2024-03-02T01:08:14;22.47;;;17.30;;
13805;SDS011;6974;53.606;9.872;2024-03-02T01:10:41;27.10;;;18.73;;
13805;SDS011;6974;53.606;9.872;2024-03-02T01:13:08;23.13;;;17.23;;
13805;SDS011;6974;53.606;9.872;2024-03-02T01:15:36;21.47;;;18.07;;
13805;SDS011;6974;53.606;9.872;2024-03-02T01:18:03;22.10;;;18.17;;
13805;SDS011;6974;53.606;9.872;2024-03-02T01:20:31;24.43;;;18.10;;
13805;SDS011;6974;53.606;9.872;2024-03-02T01:22:58;24.07;;;18.40;;
13805;SDS011;6974;53.606;9.872;2024-03-02T01:25:24;24.33;;;17.97;;
13805;SDS011;6974;53.606;9.872;2024-03-02T01:27:51;26.10;;;19.87;;
13805;SDS011;6974;53.606;9.872;2024-03-02T01:30:18;27.70;;;19.57;;
13805;SDS011;6974;53.606;9.872;2024-03-02T01:32:47;27.53;;;20.20;;
13805;SDS011;6974;53.606;9.872;2024-03-02T01:35:14;28.20;;;21.03;;
13805;SDS011;6974;53.606;9.872;2024-03-02T01:37:42;29.23;;;20.67;;
13805;SDS011;6974;53.606;9.872;2024-03-02T01:40:10;29.13;;;20.50;;
13805;SDS011;6974;53.606;9.872;2024-03-02T01:42:38;28.73;;;21.87;;
13805;SDS011;6974;53.606;9.872;2024-03-02T01:45:05;31.23;;;21.87;;
13805;SDS011;6974;53.606;9.872;2024-03-02T01:47:33;31.80;;;23.33;;
13805;SDS011;6974;53.606;9.872;2024-03-02T01:50:02;29.23;;;23.00;;
13805;SDS011;6974;53.606;9.872;2024-03-02T01:52:29;34.60;;;23.07;;
13805;SDS011;6974;53.606;9.872;2024-03-02T01:54:56;32.33;;;24.30;;
13805;SDS011;6974;53.606;9.872;2024-03-02T01:57:23;32.83;;;22.87;;
13805;SDS011;6974;53.606;9.872;2024-03-02T01:59:50;33.40;;;23.67;;
13805;SDS011;6974;53.606;9.872;2024-03-02T02:02:18;30.23;;;23.20;;
13805;SDS011;6974;53.606;9.872;2024-03-02T02:04:45;36.73;;;25.57;;
13805;SDS011;6974;53.606;9.872;2024-03-02T02:07:14;35.57;;;24.37;;
13805;SDS011;6974;53.606;9.872;2024-03-02T02:09:41;33.40;;;24.23;;
13805;SDS011;6974;53.606;9.872;2024-03-02T02:12:08;35.33;;;24.20;;
13805;SDS011;6974;53.606;9.872;2024-03-02T02:14:36;35.57;;;24.10;;
13805;SDS011;6974;53.606;9.872;2024-03-02T02:17:05;32.30;;;24.13;;
13805;SDS011;6974;53.606;9.872;2024-03-02T02:19:31;32.73;;;24.53;;
13805;SDS011;6974;53.606;9.872;2024-03-02T02:22:00;34.03;;;24.30;;
13805;SDS011;6974;53.606;9.872;2024-03-02T02:24:26;32.97;;;23.80;;
13805;SDS011;6974;53.606;9.872;2024-03-02T02:26:53;35.77;;;25.90;;
13805;SDS011;6974;53.606;9.872;2024-03-02T02:29:20;38.47;;;24.93;;
13805;SDS011;6974;53.606;9.872;2024-03-02T02:31:47;33.77;;;24.93;;
13805;SDS011;6974;53.606;9.872;2024-03-02T02:34:14;35.30;;;25.60;;
13805;SDS011;6974;53.606;9.872;2024-03-02T02:36:41;36.43;;;26.43;;
13805;SDS011;6974;53.606;9.872;2024-03-02T02:39:11;36.07;;;25.57;;
13805;SDS011;6974;53.606;9.872;2024-03-02T02:41:42;34.13;;;24.90;;
13805;SDS011;6974;53.606;9.872;2024-03-02T02:44:08;36.57;;;25.47;;
13805;SDS011;6974;53.606;9.872;2024-03-02T02:46:37;35.93;;;25.87;;
13805;SDS011;6974;53.606;9.872;2024-03-02T02:49:04;35.97;;;24.97;;
13805;SDS011;6974;53.606;9.872;2024-03-02T02:51:31;35.87;;;25.37;;
13805;SDS011;6974;53.606;9.872;2024-03-02T02:53:58;34.60;;;24.97;;
13805;SDS011;6974;53.606;9.872;2024-03-02T02:56:26;35.37;;;25.10;;
13805;SDS011;6974;53.606;9.872;2024-03-02T02:58:53;34.47;;;25.57;;
13805;SDS011;6974;53.606;9.872;2024-03-02T03:01:20;37.53;;;26.47;;
13805;SDS011;6974;53.606;9.872;2024-03-02T03:03:47;36.83;;;24.67;;
13805;SDS011;6974;53.606;9.872;2024-03-02T03:06:13;37.17;;;26.53;;
13805;SDS011;6974;53.606;9.872;2024-03-02T03:08:40;35.07;;;24.37;;
13805;SDS011;6974;53.606;9.872;2024-03-02T03:11:07;36.37;;;25.27;;
13805;SDS011;6974;53.606;9.872;2024-03-02T03:13:35;35.90;;;25.10;;
13805;SDS011;6974;53.606;9.872;2024-03-02T03:16:02;36.97;;;25.87;;
13805;SDS011;6974;53.606;9.872;2024-03-02T03:18:30;35.80;;;24.93;;
13805;SDS011;6974;53.606;9.872;2024-03-02T03:20:57;33.50;;;24.47;;
13805;SDS011;6974;53.606;9.872;2024-03-02T03:23:24;33.23;;;23.40;;
13805;SDS011;6974;53.606;9.872;2024-03-02T03:25:51;32.87;;;23.70;;
13805;SDS011;6974;53.606;9.872;2024-03-02T03:28:17;33.50;;;23.33;;
13805;SDS011;6974;53.606;9.872;2024-03-02T03:30:46;35.70;;;24.80;;
13805;SDS011;6974;53.606;9.872;2024-03-02T03:33:12;31.27;;;23.40;;
13805;SDS011;6974;53.606;9.872;2024-03-02T03:35:39;31.63;;;23.93;;
13805;SDS011;6974;53.606;9.872;2024-03-02T03:38:06;33.30;;;25.07;;
13805;SDS011;6974;53.606;9.872;2024-03-02T03:40:33;34.33;;;25.40;;
13805;SDS011;6974;53.606;9.872;2024-03-02T03:43:00;31.57;;;23.27;;
13805;SDS011;6974;53.606;9.872;2024-03-02T03:45:27;32.87;;;23.93;;
13805;SDS011;6974;53.606;9.872;2024-03-02T03:47:56;35.70;;;23.67;;
13805;SDS011;6974;53.606;9.872;2024-03-02T03:50:23;34.70;;;25.00;;
13805;SDS011;6974;53.606;9.872;2024-03-02T03:52:50;33.67;;;24.07;;
13805;SDS011;6974;53.606;9.872;2024-03-02T03:55:17;31.27;;;23.60;;
13805;SDS011;6974;53.606;9.872;2024-03-02T03:57:44;36.53;;;25.00;;
13805;SDS011;6974;53.606;9.872;2024-03-02T04:00:10;33.77;;;24.17;;
13805;SDS011;6974;53.606;9.872;2024-03-02T04:02:37;33.73;;;24.07;;
13805;SDS011;6974;53.606;9.872;2024-03-02T04:05:06;33.13;;;23.60;;
13805;SDS011;6974;53.606;9.872;2024-03-02T04:07:35;35.27;;;24.67;;
13805;SDS011;6974;53.606;9.872;2024-03-02T04:10:06;34.47;;;24.77;;
13805;SDS011;6974;53.606;9.872;2024-03-02T04:12:34;35.13;;;23.60;;
13805;SDS011;6974;53.606;9.872;2024-03-02T04:15:02;31.30;;;23.73;;
13805;SDS011;6974;53.606;9.872;2024-03-02T04:17:31;34.07;;;23.83;;
13805;SDS011;6974;53.606;9.872;2024-03-02T04:19:58;32.00;;;24.40;;
13805;SDS011;6974;53.606;9.872;2024-03-02T04:22:27;34.07;;;25.00;;
13805;SDS011;6974;53.606;9.872;2024-03-02T04:24:54;31.83;;;23.70;;
13805;SDS011;6974;53.606;9.872;2024-03-02T04:27:21;33.17;;;23.83;;
13805;SDS011;6974;53.606;9.872;2024-03-02T04:29:47;34.60;;;24.17;;
13805;SDS011;6974;53.606;9.872;2024-03-02T04:32:14;30.73;;;23.23;;
13805;SDS011;6974;53.606;9.872;2024-03-02T04:34:41;32.93;;;24.17;;
13805;SDS011;6974;53.606;9.872;2024-03-02T04:37:08;34.83;;;25.00;;
13805;SDS011;6974;53.606;9.872;2024-03-02T04:39:40;35.60;;;24.47;;
13805;SDS011;6974;53.606;9.872;2024-03-02T04:42:07;34.00;;;24.23;;
13805;SDS011;6974;53.606;9.872;2024-03-02T04:44:34;34.83;;;24.63;;
13805;SDS011;6974;53.606;9.872;2024-03-02T04:47:02;32.43;;;23.97;;
13805;SDS011;6974;53.606;9.872;2024-03-02T04:49:29;30.60;;;23.07;;
13805;SDS011;6974;53.606;9.872;2024-03-02T04:51:56;29.13;;;23.40;;
13805;SDS011;6974;53.606;9.872;2024-03-02T04:54:23;33.27;;;24.37;;
13805;SDS011;6974;53.606;9.872;2024-03-02T04:56:51;33.00;;;24.10;;
13805;SDS011;6974;53.606;9.872;2024-03-02T04:59:18;31.57;;;23.97;;
13805;SDS011;6974;53.606;9.872;2024-03-02T05:01:45;32.87;;;23.03;;
13805;SDS011;6974;53.606;9.872;2024-03-02T05:04:12;30.60;;;23.93;;
13805;SDS011;6974;53.606;9.872;2024-03-02T05:06:39;32.93;;;23.57;;
13805;SDS011;6974;53.606;9.872;2024-03-02T05:09:06;30.20;;;23.27;;
13805;SDS011;6974;53.606;9.872;2024-03-02T05:11:33;31.40;;;25.17;;
13805;SDS011;6974;53.606;9.872;2024-03-02T05:14:29;33.27;;;23.90;;
13805;SDS011;6974;53.606;9.872;2024-03-02T05:16:55;31.47;;;24.37;;
13805;SDS011;6974;53.606;9.872;2024-03-02T05:19:22;31.67;;;23.93;;
13805;SDS011;6974;53.606;9.872;2024-03-02T05:21:48;32.73;;;23.77;;
13805;SDS011;6974;53.606;9.872;2024-03-02T05:24:16;32.43;;;23.37;;
13805;SDS011;6974;53.606;9.872;2024-03-02T05:26:44;33.70;;;23.60;;
13805;SDS011;6974;53.606;9.872;2024-03-02T05:29:10;30.07;;;23.23;;
13805;SDS011;6974;53.606;9.872;2024-03-02T05:31:39;33.90;;;24.27;;
13805;SDS011;6974;53.606;9.872;2024-03-02T05:34:05;32.53;;;22.87;;
13805;SDS011;6974;53.606;9.872;2024-03-02T05:36:32;29.77;;;22.83;;
13805;SDS011;6974;53.606;9.872;2024-03-02T05:38:59;31.97;;;23.80;;
13805;SDS011;6974;53.606;9.872;2024-03-02T05:41:26;30.67;;;23.27;;
13805;SDS011;6974;53.606;9.872;2024-03-02T05:43:53;31.07;;;23.33;;
13805;SDS011;6974;53.606;9.872;2024-03-02T05:46:20;34.63;;;24.67;;
13805;SDS011;6974;53.606;9.872;2024-03-02T05:48:48;33.80;;;23.50;;
13805;SDS011;6974;53.606;9.872;2024-03-02T05:51:15;31.67;;;23.67;;
13805;SDS011;6974;53.606;9.872;2024-03-02T05:53:42;35.13;;;24.33;;
13805;SDS011;6974;53.606;9.872;2024-03-02T05:56:09;31.53;;;22.73;;
13805;SDS011;6974;53.606;9.872;2024-03-02T05:58:37;31.10;;;23.23;;
13805;SDS011;6974;53.606;9.872;2024-03-02T06:01:14;29.67;;;22.43;;
13805;SDS011;6974;53.606;9.872;2024-03-02T06:03:43;33.43;;;23.40;;
13805;SDS011;6974;53.606;9.872;2024-03-02T06:06:11;31.87;;;23.07;;
13805;SDS011;6974;53.606;9.872;2024-03-02T06:08:38;26.43;;;21.80;;
13805;SDS011;6974;53.606;9.872;2024-03-02T06:11:04;30.67;;;21.60;;
13805;SDS011;6974;53.606;9.872;2024-03-02T06:13:31;30.70;;;23.37;;
13805;SDS011;6974;53.606;9.872;2024-03-02T06:15:58;33.07;;;22.57;;
13805;SDS011;6974;53.606;9.872;2024-03-02T06:18:25;31.27;;;21.93;;
13805;SDS011;6974;53.606;9.872;2024-03-02T06:20:53;32.87;;;22.83;;
13805;SDS011;6974;53.606;9.872;2024-03-02T06:23:21;28.37;;;23.33;;
13805;SDS011;6974;53.606;9.872;2024-03-02T06:25:48;32.83;;;22.37;;
13805;SDS011;6974;53.606;9.872;2024-03-02T06:28:15;30.90;;;22.80;;
13805;SDS011;6974;53.606;9.872;2024-03-02T06:30:41;28.73;;;22.07;;
13805;SDS011;6974;53.606;9.872;2024-03-02T06:33:08;32.60;;;22.90;;
13805;SDS011;6974;53.606;9.872;2024-03-02T06:35:35;30.87;;;22.50;;
13805;SDS011;6974;53.606;9.872;2024-03-02T06:38:02;30.37;;;21.83;;
13805;SDS011;6974;53.606;9.872;2024-03-02T06:40:30;33.00;;;22.83;;
13805;SDS011;6974;53.606;9.872;2024-03-02T06:42:57;31.17;;;22.30;;
13805;SDS011;6974;53.606;9.872;2024-03-02T06:45:24;27.67;;;20.60;;
13805;SDS011;6974;53.606;9.872;2024-03-02T06:47:51;30.50;;;21.97;;
13805;SDS011;6974;53.606;9.872;2024-03-02T06:50:18;26.60;;;20.73;;
13805;SDS011;6974;53.606;9.872;2024-03-02T06:52:45;29.43;;;21.67;;
13805;SDS011;6974;53.606;9.872;2024-03-02T06:55:12;28.43;;;22.20;;
13805;SDS011;6974;53.606;9.872;2024-03-02T06:57:40;26.03;;;21.83;;
13805;SDS011;6974;53.606;9.872;2024-03-02T07:00:07;31.17;;;21.67;;
13805;SDS011;6974;53.606;9.872;2024-03-02T07:02:34;31.37;;;22.23;;
13805;SDS011;6974;53.606;9.872;2024-03-02T07:05:02;29.60;;;21.23;;
13805;SDS011;6974;53.606;9.872;2024-03-02T07:07:29;28.50;;;22.00;;
13805;SDS011;6974;53.606;9.872;2024-03-02T07:09:56;27.97;;;21.17;;
13805;SDS011;6974;53.606;9.872;2024-03-02T07:12:23;28.20;;;21.03;;
13805;SDS011;6974;53.606;9.872;2024-03-02T07:14:51;30.13;;;22.40;;
13805;SDS011;6974;53.606;9.872;2024-03-02T07:17:36;29.30;;;21.13;;
13805;SDS011;6974;53.606;9.872;2024-03-02T07:20:03;30.67;;;21.50;;
13805;SDS011;6974;53.606;9.872;2024-03-02T07:22:31;28.97;;;21.83;;
13805;SDS011;6974;53.606;9.872;2024-03-02T07:24:59;27.00;;;21.43;;
13805;SDS011;6974;53.606;9.872;2024-03-02T07:27:26;31.57;;;21.37;;
13805;SDS011;6974;53.606;9.872;2024-03-02T07:29:54;27.47;;;20.90;;
13805;SDS011;6974;53.606;9.872;2024-03-02T07:32:21;30.87;;;22.03;;
13805;SDS011;6974;53.606;9.872;2024-03-02T07:34:47;30.63;;;22.23;;
13805;SDS011;6974;53.606;9.872;2024-03-02T07:37:16;29.67;;;21.27;;
13805;SDS011;6974;53.606;9.872;2024-03-02T07:39:43;31.77;;;22.07;;
13805;SDS011;6974;53.606;9.872;2024-03-02T07:42:11;28.90;;;22.13;;
13805;SDS011;6974;53.606;9.872;2024-03-02T07:44:41;27.90;;;21.83;;
13805;SDS011;6974;53.606;9.872;2024-03-02T07:47:11;28.20;;;21.33;;
13805;SDS011;6974;53.606;9.872;2024-03-02T07:49:38;27.87;;;21.37;;
13805;SDS011;6974;53.606;9.872;2024-03-02T07:52:05;29.30;;;20.97;;
13805;SDS011;6974;53.606;9.872;2024-03-02T07:54:32;29.83;;;21.87;;
13805;SDS011;6974;53.606;9.872;2024-03-02T07:56:59;30.57;;;22.63;;
13805;SDS011;6974;53.606;9.872;2024-03-02T07:59:26;28.17;;;20.37;;
13805;SDS011;6974;53.606;9.872;2024-03-02T08:01:53;32.97;;;23.93;;
13805;SDS011;6974;53.606;9.872;2024-03-02T08:04:21;27.77;;;21.23;;
13805;SDS011;6974;53.606;9.872;2024-03-02T08:06:48;29.50;;;21.53;;
13805;SDS011;6974;53.606;9.872;2024-03-02T08:09:15;29.57;;;21.77;;
13805;SDS011;6974;53.606;9.872;2024-03-02T08:11:42;28.00;;;20.67;;
13805;SDS011;6974;53.606;9.872;2024-03-02T08:14:09;28.67;;;21.00;;
13805;SDS011;6974;53.606;9.872;2024-03-02T08:16:35;27.83;;;21.07;;
13805;SDS011;6974;53.606;9.872;2024-03-02T08:19:02;28.90;;;21.37;;
13805;SDS011;6974;53.606;9.872;2024-03-02T08:21:33;28.63;;;21.67;;
13805;SDS011;6974;53.606;9.872;2024-03-02T08:24:01;25.40;;;19.93;;
13805;SDS011;6974;53.606;9.872;2024-03-02T08:26:28;26.53;;;20.63;;
13805;SDS011;6974;53.606;9.872;2024-03-02T08:28:56;28.23;;;21.27;;
13805;SDS011;6974;53.606;9.872;2024-03-02T08:31:23;27.30;;;20.80;;
13805;SDS011;6974;53.606;9.872;2024-03-02T08:33:50;29.50;;;20.63;;
13805;SDS011;6974;53.606;9.872;2024-03-02T08:36:17;26.90;;;21.03;;
13805;SDS011;6974;53.606;9.872;2024-03-02T08:38:46;27.33;;;21.17;;
13805;SDS011;6974;53.606;9.872;2024-03-02T08:41:14;26.73;;;21.67;;
13805;SDS011;6974;53.606;9.872;2024-03-02T08:47:00;29.47;;;20.60;;
13805;SDS011;6974;53.606;9.872;2024-03-02T08:53:32;29.30;;;21.17;;
13805;SDS011;6974;53.606;9.872;2024-03-02T08:56:20;27.60;;;19.80;;
13805;SDS011;6974;53.606;9.872;2024-03-02T08:59:01;26.03;;;19.90;;
13805;SDS011;6974;53.606;9.872;2024-03-02T09:01:28;24.90;;;19.27;;
13805;SDS011;6974;53.606;9.872;2024-03-02T09:03:57;26.80;;;20.80;;
13805;SDS011;6974;53.606;9.872;2024-03-02T09:06:23;27.60;;;19.70;;
13805;SDS011;6974;53.606;9.872;2024-03-02T09:08:50;24.50;;;19.20;;
13805;SDS011;6974;53.606;9.872;2024-03-02T09:11:17;25.13;;;20.00;;
13805;SDS011;6974;53.606;9.872;2024-03-02T09:13:45;24.77;;;19.33;;
13805;SDS011;6974;53.606;9.872;2024-03-02T09:16:12;23.70;;;18.70;;
13805;SDS011;6974;53.606;9.872;2024-03-02T09:18:39;24.37;;;18.93;;
13805;SDS011;6974;53.606;9.872;2024-03-02T09:21:06;26.60;;;19.87;;
13805;SDS011;6974;53.606;9.872;2024-03-02T09:23:33;25.50;;;19.20;;
13805;SDS011;6974;53.606;9.872;2024-03-02T09:26:00;24.13;;;18.90;;
13805;SDS011;6974;53.606;9.872;2024-03-02T09:28:26;23.47;;;18.43;;
13805;SDS011;6974;53.606;9.872;2024-03-02T09:30:54;21.23;;;18.03;;
13805;SDS011;6974;53.606;9.872;2024-03-02T09:33:21;22.17;;;17.80;;
13805;SDS011;6974;53.606;9.872;2024-03-02T09:35:48;22.93;;;18.37;;
13805;SDS011;6974;53.606;9.872;2024-03-02T09:38:15;25.00;;;18.13;;
13805;SDS011;6974;53.606;9.872;2024-03-02T09:40:42;22.17;;;17.37;;
13805;SDS011;6974;53.606;9.872;2024-03-02T09:43:09;22.03;;;17.80;;
13805;SDS011;6974;53.606;9.872;2024-03-02T09:45:36;21.93;;;17.57;;
13805;SDS011;6974;53.606;9.872;2024-03-02T09:48:05;21.47;;;17.93;;
13805;SDS011;6974;53.606;9.872;2024-03-02T09:50:32;25.70;;;17.97;;
13805;SDS011;6974;53.606;9.872;2024-03-02T09:52:59;21.50;;;17.10;;
13805;SDS011;6974;53.606;9.872;2024-03-02T09:55:26;21.80;;;16.67;;
13805;SDS011;6974;53.606;9.872;2024-03-02T09:57:53;20.20;;;16.87;;
13805;SDS011;6974;53.606;9.872;2024-03-02T10:00:21;21.63;;;17.03;;
13805;SDS011;6974;53.606;9.872;2024-03-02T10:02:47;18.37;;;14.77;;
13805;SDS011;6974;53.606;9.872;2024-03-02T10:05:24;17.17;;;14.60;;
13805;SDS011;6974;53.606;9.872;2024-03-02T10:07:58;17.57;;;15.37;;
13805;SDS011;6974;53.606;9.872;2024-03-02T10:10:27;17.27;;;14.70;;
13805;SDS011;6974;53.606;9.872;2024-03-02T10:13:05;18.77;;;15.30;;
13805;SDS011;6974;53.606;9.872;2024-03-02T10:15:32;19.63;;;15.47;;
13805;SDS011;6974;53.606;9.872;2024-03-02T10:17:59;21.27;;;15.97;;
13805;SDS011;6974;53.606;9.872;2024-03-02T10:20:27;19.93;;;15.20;;
13805;SDS011;6974;53.606;9.872;2024-03-02T10:22:55;17.20;;;14.63;;
13805;SDS011;6974;53.606;9.872;2024-03-02T10:25:28;16.53;;;14.67;;
13805;SDS011;6974;53.606;9.872;2024-03-02T10:27:57;19.13;;;14.37;;
13805;SDS011;6974;53.606;9.872;2024-03-02T10:30:24;16.90;;;15.10;;
13805;SDS011;6974;53.606;9.872;2024-03-02T10:32:52;18.33;;;14.57;;
13805;SDS011;6974;53.606;9.872;2024-03-02T10:35:20;17.93;;;14.83;;
13805;SDS011;6974;53.606;9.872;2024-03-02T10:37:49;20.10;;;14.77;;
13805;SDS011;6974;53.606;9.872;2024-03-02T10:40:17;17.33;;;14.10;;
13805;SDS011;6974;53.606;9.872;2024-03-02T10:42:44;15.80;;;14.10;;
13805;SDS011;6974;53.606;9.872;2024-03-02T10:45:12;19.10;;;15.00;;
13805;SDS011;6974;53.606;9.872;2024-03-02T10:47:41;16.37;;;13.23;;
13805;SDS011;6974;53.606;9.872;2024-03-02T10:50:09;19.23;;;13.57;;
13805;SDS011;6974;53.606;9.872;2024-03-02T10:52:36;16.37;;;11.70;;
13805;SDS011;6974;53.606;9.872;2024-03-02T10:55:06;16.17;;;11.83;;
13805;SDS011;6974;53.606;9.872;2024-03-02T10:57:36;14.93;;;12.03;;
13805;SDS011;6974;53.606;9.872;2024-03-02T11:00:11;13.83;;;11.40;;
13805;SDS011;6974;53.606;9.872;2024-03-02T11:02:42;13.97;;;11.33;;
13805;SDS011;6974;53.606;9.872;2024-03-02T11:05:13;14.33;;;11.77;;
13805;SDS011;6974;53.606;9.872;2024-03-02T11:07:56;13.57;;;11.20;;
13805;SDS011;6974;53.606;9.872;2024-03-02T11:10:28;14.50;;;11.77;;
13805;SDS011;6974;53.606;9.872;2024-03-02T11:13:00;14.33;;;11.00;;
13805;SDS011;6974;53.606;9.872;2024-03-02T11:15:30;12.43;;;9.77;;
13805;SDS011;6974;53.606;9.872;2024-03-02T11:18:00;14.57;;;9.90;;
13805;SDS011;6974;53.606;9.872;2024-03-02T11:20:30;11.10;;;9.80;;
13805;SDS011;6974;53.606;9.872;2024-03-02T11:22:57;12.93;;;10.00;;
13805;SDS011;6974;53.606;9.872;2024-03-02T11:25:31;12.27;;;9.70;;
13805;SDS011;6974;53.606;9.872;2024-03-02T11:27:59;11.47;;;9.67;;
13805;SDS011;6974;53.606;9.872;2024-03-02T11:33:24;11.93;;;10.30;;
13805;SDS011;6974;53.606;9.872;2024-03-02T11:35:52;11.40;;;9.40;;
13805;SDS011;6974;53.606;9.872;2024-03-02T11:38:19;12.30;;;9.57;;
13805;SDS011;6974;53.606;9.872;2024-03-02T11:40:47;13.13;;;9.47;;
13805;SDS011;6974;53.606;9.872;2024-03-02T11:43:14;9.80;;;8.70;;
13805;SDS011;6974;53.606;9.872;2024-03-02T11:45:42;11.83;;;9.03;;
13805;SDS011;6974;53.606;9.872;2024-03-02T11:48:10;10.83;;;9.57;;
13805;SDS011;6974;53.606;9.872;2024-03-02T11:50:40;10.10;;;8.93;;
13805;SDS011;6974;53.606;9.872;2024-03-02T11:53:09;11.27;;;8.60;;
13805;SDS011;6974;53.606;9.872;2024-03-02T11:55:38;11.60;;;8.73;;
13805;SDS011;6974;53.606;9.872;2024-03-02T11:58:07;9.73;;;8.10;;
13805;SDS011;6974;53.606;9.872;2024-03-02T12:00:34;9.57;;;7.70;;
13805;SDS011;6974;53.606;9.872;2024-03-02T12:03:01;9.37;;;7.73;;
13805;SDS011;6974;53.606;9.872;2024-03-02T12:05:32;10.47;;;8.23;;
13805;SDS011;6974;53.606;9.872;2024-03-02T12:07:59;9.60;;;7.87;;
13805;SDS011;6974;53.606;9.872;2024-03-02T12:10:27;11.13;;;7.60;;
13805;SDS011;6974;53.606;9.872;2024-03-02T12:12:55;10.43;;;7.33;;
13805;SDS011;6974;53.606;9.872;2024-03-02T12:15:25;8.33;;;7.10;;
13805;SDS011;6974;53.606;9.872;2024-03-02T12:17:53;8.47;;;7.07;;
13805;SDS011;6974;53.606;9.872;2024-03-02T12:20:20;9.73;;;7.93;;
13805;SDS011;6974;53.606;9.872;2024-03-02T12:25:24;9.77;;;8.27;;
13805;SDS011;6974;53.606;9.872;2024-03-02T12:27:52;9.63;;;8.63;;
13805;SDS011;6974;53.606;9.872;2024-03-02T12:30:21;11.33;;;9.67;;
13805;SDS011;6974;53.606;9.872;2024-03-02T12:32:50;12.33;;;9.70;;
13805;SDS011;6974;53.606;9.872;2024-03-02T12:35:17;11.23;;;9.00;;
13805;SDS011;6974;53.606;9.872;2024-03-02T12:37:46;13.57;;;9.67;;
13805;SDS011;6974;53.606;9.872;2024-03-02T12:40:15;11.23;;;9.40;;
13805;SDS011;6974;53.606;9.872;2024-03-02T12:42:45;11.07;;;8.87;;
13805;SDS011;6974;53.606;9.872;2024-03-02T12:45:13;10.10;;;8.37;;
13805;SDS011;6974;53.606;9.872;2024-03-02T12:47:50;10.50;;;8.43;;
13805;SDS011;6974;53.606;9.872;2024-03-02T12:50:17;11.53;;;8.63;;
13805;SDS011;6974;53.606;9.872;2024-03-02T12:52:50;10.07;;;8.63;;
13805;SDS011;6974;53.606;9.872;2024-03-02T12:55:20;9.70;;;8.43;;
13805;SDS011;6974;53.606;9.872;2024-03-02T12:57:49;10.60;;;8.63;;
13805;SDS011;6974;53.606;9.872;2024-03-02T13:00:17;10.93;;;8.87;;
13805;SDS011;6974;53.606;9.872;2024-03-02T13:02:45;9.57;;;8.57;;
13805;SDS011;6974;53.606;9.872;2024-03-02T13:05:14;10.93;;;8.80;;
13805;SDS011;6974;53.606;9.872;2024-03-02T13:07:41;11.03;;;8.37;;
13805;SDS011;6974;53.606;9.872;2024-03-02T13:10:10;9.87;;;8.43;;
13805;SDS011;6974;53.606;9.872;2024-03-02T13:12:40;11.07;;;8.20;;
13805;SDS011;6974;53.606;9.872;2024-03-02T13:15:09;9.37;;;8.30;;
13805;SDS011;6974;53.606;9.872;2024-03-02T13:17:36;9.90;;;8.13;;
13805;SDS011;6974;53.606;9.872;2024-03-02T13:20:05;9.83;;;8.27;;
13805;SDS011;6974;53.606;9.872;2024-03-02T13:22:36;9.67;;;7.60;;
13805;SDS011;6974;53.606;9.872;2024-03-02T13:25:04;8.53;;;6.97;;
13805;SDS011;6974;53.606;9.872;2024-03-02T13:27:33;8.97;;;7.13;;
13805;SDS011;6974;53.606;9.872;2024-03-02T13:30:01;8.47;;;7.30;;
13805;SDS011;6974;53.606;9.872;2024-03-02T13:32:30;9.97;;;7.93;;
13805;SDS011;6974;53.606;9.872;2024-03-02T13:34:58;8.27;;;7.40;;
13805;SDS011;6974;53.606;9.872;2024-03-02T13:37:25;8.80;;;7.63;;
13805;SDS011;6974;53.606;9.872;2024-03-02T13:39:53;11.27;;;7.87;;
13805;SDS011;6974;53.606;9.872;2024-03-02T13:42:20;11.20;;;8.90;;
13805;SDS011;6974;53.606;9.872;2024-03-02T13:44:47;13.27;;;8.70;;
13805;SDS011;6974;53.606;9.872;2024-03-02T13:47:16;12.20;;;9.43;;
13805;SDS011;6974;53.606;9.872;2024-03-02T13:49:43;9.47;;;8.47;;
13805;SDS011;6974;53.606;9.872;2024-03-02T13:52:13;10.13;;;7.80;;
13805;SDS011;6974;53.606;9.872;2024-03-02T13:54:42;10.43;;;8.13;;
13805;SDS011;6974;53.606;9.872;2024-03-02T13:57:12;11.03;;;8.20;;
13805;SDS011;6974;53.606;9.872;2024-03-02T13:59:40;9.70;;;8.57;;
13805;SDS011;6974;53.606;9.872;2024-03-02T14:02:08;11.47;;;8.13;;
13805;SDS011;6974;53.606;9.872;2024-03-02T14:04:36;9.83;;;8.53;;
13805;SDS011;6974;53.606;9.872;2024-03-02T14:07:03;13.33;;;8.60;;
13805;SDS011;6974;53.606;9.872;2024-03-02T14:09:32;8.53;;;7.57;;
13805;SDS011;6974;53.606;9.872;2024-03-02T14:11:59;12.33;;;9.30;;
13805;SDS011;6974;53.606;9.872;2024-03-02T14:14:27;10.20;;;9.00;;
13805;SDS011;6974;53.606;9.872;2024-03-02T14:16:54;9.87;;;8.63;;
13805;SDS011;6974;53.606;9.872;2024-03-02T14:19:25;10.33;;;8.80;;
13805;SDS011;6974;53.606;9.872;2024-03-02T14:21:53;12.00;;;9.30;;
13805;SDS011;6974;53.606;9.872;2024-03-02T14:24:21;11.13;;;8.93;;
13805;SDS011;6974;53.606;9.872;2024-03-02T14:26:52;10.73;;;8.53;;
13805;SDS011;6974;53.606;9.872;2024-03-02T14:29:19;10.50;;;9.07;;
13805;SDS011;6974;53.606;9.872;2024-03-02T14:31:48;10.97;;;9.20;;
13805;SDS011;6974;53.606;9.872;2024-03-02T14:34:15;9.77;;;8.63;;
13805;SDS011;6974;53.606;9.872;2024-03-02T14:36:42;11.83;;;9.10;;
13805;SDS011;6974;53.606;9.872;2024-03-02T14:39:09;11.87;;;9.43;;
13805;SDS011;6974;53.606;9.872;2024-03-02T14:41:37;10.70;;;9.40;;
13805;SDS011;6974;53.606;9.872;2024-03-02T14:44:04;12.10;;;9.93;;
13805;SDS011;6974;53.606;9.872;2024-03-02T14:46:31;11.47;;;9.30;;
13805;SDS011;6974;53.606;9.872;2024-03-02T14:49:00;12.03;;;10.33;;
13805;SDS011;6974;53.606;9.872;2024-03-02T14:51:27;14.60;;;10.10;;
13805;SDS011;6974;53.606;9.872;2024-03-02T14:53:55;12.30;;;9.97;;
13805;SDS011;6974;53.606;9.872;2024-03-02T14:56:22;13.50;;;10.50;;